Nearby METAR Reports

 

KSJC - San Jose, California, USA
Distance from station: NE 14km
Updated: 25/02/2024 10:53
Few Clouds
Few Clouds
 Wind from SE
Wind: SE 7 km/h
Temperature: 17°C
Dew Point: 9°C
Humidity: 59%
Barometer: 1018.3 hPa
Clouds: Few Clouds
Visibility: 16 km
Cloud details: Few Clouds 4572 m
2024/02/25 18:53 KSJC 251853Z 14004KT 10SM FEW150 17/09 A3007 RMK AO2 SLP182 T01720089
KNUQ - Moffett Nas/Mtn, California, USA
Distance from station: N 14km
Updated: 25/02/2024 11:15
Clear
Clear
 Wind from NW
Wind: NW 11 km/h
Temperature: 16°C
Dew Point: 10°C
Humidity: 68%
Barometer: 1018.6 hPa
Clouds: Clear
Visibility: 16 km
2024/02/25 19:15 KNUQ 251915Z AUTO 32006KT 10SM CLR 16/10 A3008 RMK AO2
 
KPAO - Palo Alto, California, USA
Distance from station: NNW 23km
Updated: 25/02/2024 10:47
Few Clouds
Few Clouds
 Wind from N
Wind: N 7 km/h
Temperature: 14°C
Dew Point: 9°C
Humidity: 72%
Barometer: 1019 hPa
Clouds: Few Clouds
Visibility: 16 km
Cloud details: Few Clouds 6096 m
2024/02/25 18:47 KPAO 251847Z 01004KT 10SM FEW200 14/09 A3009
KRHV - San Jose/Reid, California, USA
Distance from station: ENE 19km
Updated: 25/02/2024 10:47
Clear
Clear
 Wind from calm
Wind: Calm
Temperature: 14°C
Dew Point: 9°C
Humidity: 72%
Barometer: 1018.6 hPa
Clouds: Clear
Visibility: 16 km
2024/02/25 18:47 KRHV 251847Z 00000KT 10SM SKC 14/09 A3008
 
KOAK - Oakland, California, USA
Distance from station: NNW 50km
Updated: 25/02/2024 10:53
Partly cloudy
Partly cloudy
 Wind from W
Wind: W 7 km/h
Temperature: 15°C
Dew Point: 11°C
Humidity: 77%
Barometer: 1019 hPa
Clouds: Partly cloudy
Visibility: 16 km
Cloud details: Few Clouds 853 m
Few Clouds 4572 m
Partly cloudy 5791 m
2024/02/25 18:53 KOAK 251853Z 27004KT 10SM FEW028 FEW150 SCT190 15/11 A3009 RMK AO2 SLP187 T01500106
KSQL - San Carlos Airpo, California, USA
Distance from station: NW 34km
Updated: 25/02/2024 10:50
Clear
Clear
 Wind from varies
Wind: varies 9 km/h
Temperature: 14°C
Dew Point: 10°C
Humidity: 77%
Barometer: 1019 hPa
Clouds: Clear
Visibility: 16 km
2024/02/25 18:50 KSQL 251850Z VRB05KT 10SM CLR 14/10 A3009
 
KSFO - San Francisco, California, USA
Distance from station: NW 49km
Updated: 25/02/2024 10:56
Partly cloudy
Partly cloudy
 Wind from NE
Wind: NE 11 km/h
Temperature: 15°C
Dew Point: 11°C
Humidity: 77%
Barometer: 1018.6 hPa
Clouds: Partly cloudy
Visibility: 16 km
Cloud details: Partly cloudy 6096 m
2024/02/25 18:56 KSFO 251856Z 04006KT 10SM SCT200 15/11 A3008 RMK AO2 SLP185 T01500106 $
KE16 - San Martin, California, USA
Distance from station: ESE 43km
Updated: 25/02/2024 11:15
Clear
Clear
 Wind from ESE
Wind: ESE 6 km/h
Temperature: 15°C
Dew Point: 10°C
Humidity: 72%
Barometer: 1019 hPa
Clouds: Clear
Visibility: 16 km
2024/02/25 19:15 KE16 251915Z AUTO 12003KT 10SM CLR 15/10 A3009 RMK AO2 PWINO PNO
 
KWVI - Watsonville, California, USA
Distance from station: SSE 44km
Updated: 25/02/2024 10:53
Clear
Clear
 Wind from calm
Wind: Calm
Barometer: 1018.6 hPa
Clouds: Clear
Visibility: 16 km
2024/02/25 18:53 KWVI 251853Z AUTO 00000KT 10SM CLR A3008 RMK AO2 SLPNO $
KHAF - Half Moon Bay, California, USA
Distance from station: WNW 50km
Updated: 25/02/2024 11:15
Haze, Few clouds
Haze, Few clouds
 Wind from varies
Wind: varies 9 km/h, Gust: 19 km/h
Temperature: 15°C
Dew Point: 12°C
Humidity: 82%
Barometer: 1019.3 hPa
Summary: Haze
Clouds: Few Clouds
Visibility: 10 km
Cloud details: Few Clouds 457 m
2024/02/25 19:15 KHAF 251915Z AUTO VRB05G10KT 6SM HZ FEW015 15/12 A3010 RMK AO2
 
KHWD - Hayward, California, USA
Distance from station: N 44km
Updated: 25/02/2024 10:54
Clear
Clear
 Wind from calm
Wind: Calm
Temperature: 17°C
Dew Point: 9°C
Humidity: 59%
Barometer: 1018.3 hPa
Clouds: Clear
Visibility: 11 km
2024/02/25 18:54 KHWD 251854Z 00000KT 7SM CLR 17/09 A3007 RMK AO2 SLP193 T01720089
KLVK - Livermore, California, USA
Distance from station: NNE 51km
Updated: 25/02/2024 10:53
Clear
Clear
 Wind from varies
Wind: varies 6 km/h
Temperature: 17°C
Dew Point: 9°C
Humidity: 59%
Barometer: 1018.3 hPa
Clouds: Clear
Visibility: 16 km
2024/02/25 18:53 KLVK 251853Z VRB03KT 10SM CLR 17/09 A3007 RMK AO2 SLP179 T01720089